Allison, Texas
Current Conditions -  °F | °C
As of 7:15 PM on Tuesday 27 Jan 2015 (Local Time) from KHHF Reporting Station
Clear Clear  
Wind Chill: 56°   Ceiling: Unl
Heat Index: 56°   Visibility: 10mi
Dew Point: 36°   Wind: 3mph
Humidity: 46%   Direction: 240°WSW
Pressure: 30.06"   Gusts: NA
Location:  35.61°N, 100.1°W
Report Text: KHHF 280115Z AUTO 24003KT 10SM CLR 14/02 A3006 RMK AO2 T01350020
Loading
Personal Weather Stations






























Interactive Weather Map New forecast layout! Learn more

10-Day Weather Forecast

Advertisements
Track Severe Weather on mobile